Time;durP1;ratioP1;P1;durP2;ratioP2;P2;SDS_P1;SDS_P2;PMS_P1;PMS_P2;Temp;Humidity;BMP_temperature;BMP_pressure;BME280_temperature;BME280_humidity;BME280_pressure;Samples;Min_cycle;Max_cycle;Signal;HPM_P1;HPM_P2
2021/03/11 00:14:25;;;;;;;52.75;27.83;;;5.60;98.30;;;;;;5025904;23;20567;-82
2021/03/11 01:43:02;;;;;;;46.65;28.85;;;5.20;98.30;;;;;;5003714;23;20237;-81
2021/03/11 01:45:38;;;;;;;46.70;25.23;;;5.20;98.30;;;;;;5033831;23;20217;-80
2021/03/11 02:42:54;;;;;;;43.47;26.95;;;5.00;98.30;;;;;;4795560;24;20244;-78
2021/03/11 03:32:33;;;;;;;58.25;32.38;;;5.00;98.30;;;;;;4945401;23;20191;-81
2021/03/11 19:34:53;;;;;;;9.07;3.53;;;7.90;98.30;;;;;;5143740;23;20522;-80
2021/03/11 19:37:13;;;;;;;16.10;3.40;;;7.90;98.30;;;;;;5114683;23;20469;-80
2021/03/11 19:43:26;;;;;;;7.53;2.83;;;7.90;98.30;;;;;;5063283;23;20483;-81
2021/03/11 19:47:03;;;;;;;13.30;3.80;;;8.00;98.30;;;;;;5002520;23;20979;-81
2021/03/11 19:49:29;;;;;;;8.63;3.63;;;7.90;98.30;;;;;;4995798;23;20512;-80
2021/03/11 22:35:32;;;;;;;3.80;2.30;;;6.50;98.30;;;;;;5141458;23;21273;-79
2021/03/11 22:47:47;;;;;;;9.03;3.20;;;6.40;98.30;;;;;;5105556;23;20462;-79
2021/03/11 22:49:56;;;;;;;5.03;2.90;;;6.40;98.30;;;;;;5139870;23;20458;-79
2021/03/11 22:52:09;;;;;;;4.13;2.60;;;6.40;98.30;;;;;;5121497;23;20473;-79
2021/03/11 22:54:23;;;;;;;3.47;3.00;;;6.30;98.30;;;;;;5113943;23;20422;-79
2021/03/11 22:56:27;;;;;;;7.57;2.83;;;6.30;98.30;;;;;;5147636;23;20495;-79
2021/03/11 22:58:29;;;;;;;8.13;3.03;;;6.30;98.30;;;;;;5140512;23;20446;-79
2021/03/11 23:00:36;;;;;;;5.47;2.87;;;6.30;98.30;;;;;;5148810;23;20819;-79
2021/03/11 23:02:39;;;;;;;10.03;2.83;;;6.30;98.30;;;;;;5148511;23;20496;-78
2021/03/11 23:04:41;;;;;;;8.03;2.87;;;6.20;98.30;;;;;;5140858;23;20984;-79
2021/03/11 23:06:43;;;;;;;10.50;3.40;;;6.20;98.30;;;;;;5148769;23;20463;-79
2021/03/11 23:08:46;;;;;;;5.60;2.10;;;6.20;98.30;;;;;;5140558;23;20776;-79
2021/03/11 23:10:50;;;;;;;4.60;2.60;;;6.10;98.30;;;;;;5147903;23;20547;-78
2021/03/11 23:12:54;;;;;;;3.63;2.37;;;6.10;98.30;;;;;;5147856;23;20561;-78
2021/03/11 23:14:56;;;;;;;8.53;3.43;;;6.10;98.30;;;;;;5139437;23;20546;-78
2021/03/11 23:16:58;;;;;;;6.60;2.50;;;6.10;98.30;;;;;;5148438;23;20432;-78
2021/03/11 23:19:01;;;;;;;9.80;3.60;;;6.00;98.30;;;;;;5140014;23;20490;-78
2021/03/11 23:21:04;;;;;;;3.27;2.60;;;6.00;98.30;;;;;;5139938;23;20538;-78
2021/03/11 23:23:08;;;;;;;7.57;2.80;;;6.00;98.30;;;;;;5148173;23;20505;-78
2021/03/11 23:25:11;;;;;;;7.60;2.77;;;6.00;98.30;;;;;;5139466;23;20532;-77
2021/03/11 23:27:13;;;;;;;6.77;3.20;;;6.00;98.30;;;;;;5147972;23;20462;-78
2021/03/11 23:29:15;;;;;;;7.53;2.60;;;6.00;98.30;;;;;;5147914;23;20451;-78
2021/03/11 23:31:18;;;;;;;5.97;2.57;;;6.00;98.30;;;;;;5148129;23;20450;-78
2021/03/11 23:33:22;;;;;;;7.47;3.07;;;6.00;98.30;;;;;;5139736;23;20781;-78
2021/03/11 23:35:26;;;;;;;7.93;2.97;;;6.00;98.30;;;;;;5139344;23;20532;-78
2021/03/11 23:37:28;;;;;;;5.80;3.17;;;6.00;98.30;;;;;;5147936;23;20451;-79
2021/03/11 23:39:30;;;;;;;5.93;3.00;;;6.00;98.30;;;;;;5148467;23;20450;-79
2021/03/11 23:41:32;;;;;;;5.77;3.73;;;6.00;98.30;;;;;;5148711;23;20533;-80
2021/03/11 23:43:34;;;;;;;4.03;2.70;;;5.90;98.30;;;;;;5151114;23;20458;-79
2021/03/11 23:45:37;;;;;;;5.17;2.20;;;5.90;98.30;;;;;;5148620;23;20450;-79
2021/03/11 23:47:39;;;;;;;8.67;2.70;;;6.00;98.30;;;;;;5149145;23;20462;-79
2021/03/11 23:49:42;;;;;;;9.17;3.30;;;6.00;98.30;;;;;;5149522;23;20504;-79
2021/03/11 23:51:45;;;;;;;5.63;2.90;;;6.00;98.30;;;;;;5149770;23;20476;-79
2021/03/11 23:53:47;;;;;;;7.07;2.97;;;6.00;98.30;;;;;;5148665;23;20537;-80
2021/03/11 23:55:50;;;;;;;7.90;2.80;;;6.00;98.30;;;;;;5140811;23;20498;-79
2021/03/11 23:57:52;;;;;;;5.27;2.63;;;6.00;98.30;;;;;;5149687;23;20476;-79
2021/03/11 23:59:54;;;;;;;10.27;3.23;;;6.00;98.30;;;;;;5150319;23;20449;-79
